createdAt,value
2023-01-23T00:01:34.211Z,2.20
2023-01-23T00:04:02.000Z,2.20
2023-01-23T00:06:29.561Z,2.20
2023-01-23T00:08:56.993Z,2.20
2023-01-23T00:11:27.239Z,2.20
2023-01-23T00:13:54.519Z,2.20
2023-01-23T00:16:23.675Z,2.30
2023-01-23T00:18:52.010Z,2.20
2023-01-23T00:21:21.914Z,2.30
2023-01-23T00:23:52.336Z,2.30
2023-01-23T00:26:25.682Z,2.30
2023-01-23T00:28:53.977Z,2.30
2023-01-23T00:31:27.197Z,2.30
2023-01-23T00:33:59.632Z,2.30
2023-01-23T00:36:45.484Z,2.30
2023-01-23T00:39:20.843Z,2.30
2023-01-23T00:41:49.182Z,2.30
2023-01-23T00:44:17.142Z,2.20
2023-01-23T00:46:44.728Z,2.20
2023-01-23T00:49:12.113Z,2.20
2023-01-23T00:51:39.416Z,2.30
2023-01-23T00:54:06.862Z,2.30
2023-01-23T00:56:34.133Z,2.30
2023-01-23T00:59:01.441Z,2.30
2023-01-23T01:01:31.331Z,2.30
2023-01-23T01:03:59.996Z,2.30
2023-01-23T01:06:28.779Z,2.30
2023-01-23T01:08:58.264Z,2.30
2023-01-23T01:11:26.395Z,2.30
2023-01-23T01:13:53.784Z,2.30
2023-01-23T01:16:21.178Z,2.30
2023-01-23T01:18:48.441Z,2.30
2023-01-23T01:21:16.437Z,2.40
2023-01-23T01:23:44.009Z,2.40
2023-01-23T01:26:11.577Z,2.40
2023-01-23T01:28:40.262Z,2.40
2023-01-23T01:31:10.572Z,2.40
2023-01-23T01:33:39.499Z,2.40
2023-01-23T01:36:11.925Z,2.40
2023-01-23T01:38:39.812Z,2.40
2023-01-23T01:41:08.152Z,2.40
2023-01-23T01:43:36.331Z,2.40
2023-01-23T01:46:06.242Z,2.40
2023-01-23T01:49:11.618Z,2.40
2023-01-23T01:51:50.358Z,2.40
2023-01-23T01:54:33.057Z,2.40
2023-01-23T01:57:00.292Z,2.40
2023-01-23T01:59:31.987Z,2.40
2023-01-23T02:02:06.661Z,2.40
2023-01-23T02:04:41.740Z,2.40
2023-01-23T02:07:17.375Z,2.40
2023-01-23T02:09:45.070Z,2.40
2023-01-23T02:12:12.474Z,2.40
2023-01-23T02:14:41.891Z,2.40
2023-01-23T02:17:10.184Z,2.40
2023-01-23T02:19:50.132Z,2.40
2023-01-23T02:22:55.816Z,2.40
2023-01-23T02:25:27.773Z,2.40
2023-01-23T02:27:55.192Z,2.30
2023-01-23T02:30:22.625Z,2.30
2023-01-23T02:40:46.814Z,2.20
2023-01-23T02:43:24.308Z,2.20
2023-01-23T02:45:57.619Z,2.20
2023-01-23T02:48:25.045Z,2.20
2023-01-23T02:50:52.838Z,2.20
2023-01-23T02:53:20.167Z,2.20
2023-01-23T02:55:47.464Z,2.10
2023-01-23T02:58:33.832Z,2.10
2023-01-23T03:01:01.285Z,2.10
2023-01-23T03:03:30.542Z,2.20
2023-01-23T03:05:59.226Z,2.20
2023-01-23T03:08:33.381Z,2.20
2023-01-23T03:11:01.499Z,2.10
2023-01-23T03:13:29.553Z,2.20
2023-01-23T03:15:59.851Z,2.20
2023-01-23T03:18:30.945Z,2.20
2023-01-23T03:21:05.776Z,2.20
2023-01-23T03:23:33.185Z,2.20
2023-01-23T03:26:00.505Z,2.10
2023-01-23T03:28:49.385Z,2.10
2023-01-23T03:31:17.355Z,2.10
2023-01-23T03:41:09.197Z,1.80
2023-01-23T03:43:36.361Z,1.90
2023-01-23T03:46:04.611Z,2.00
2023-01-23T03:48:32.535Z,2.00
2023-01-23T03:50:59.926Z,2.00
2023-01-23T03:53:27.677Z,2.00
2023-01-23T03:55:55.108Z,2.00
2023-01-23T03:58:24.426Z,1.90
2023-01-23T04:00:51.799Z,1.70
2023-01-23T04:03:19.095Z,1.50
2023-01-23T04:05:47.293Z,1.30
2023-01-23T04:08:16.649Z,1.30
2023-01-23T04:10:44.296Z,1.40
2023-01-23T04:13:16.873Z,1.50
2023-01-23T04:15:45.287Z,1.70
2023-01-23T04:18:12.578Z,1.70
2023-01-23T04:20:39.852Z,1.80
2023-01-23T04:23:07.298Z,1.90
2023-01-23T04:25:34.727Z,1.80
2023-01-23T04:28:04.254Z,1.80
2023-01-23T04:30:31.701Z,1.70
2023-01-23T04:33:05.321Z,1.70
2023-01-23T04:35:34.497Z,1.70
2023-01-23T04:38:03.010Z,1.90
2023-01-23T04:40:30.475Z,2.00
2023-01-23T04:43:00.262Z,2.10
2023-01-23T04:45:34.370Z,2.10
2023-01-23T04:48:24.526Z,2.10
2023-01-23T04:50:52.253Z,2.10
2023-01-23T04:53:19.821Z,2.20
2023-01-23T04:55:53.053Z,2.30
2023-01-23T04:58:21.128Z,2.30
2023-01-23T05:00:49.264Z,2.30
2023-01-23T05:03:18.674Z,2.40
2023-01-23T05:05:49.133Z,2.40
2023-01-23T05:08:16.579Z,2.40
2023-01-23T05:10:50.530Z,2.40
2023-01-23T05:13:19.873Z,2.50
2023-01-23T05:15:47.916Z,2.50
2023-01-23T05:18:16.519Z,2.40
2023-01-23T05:20:43.856Z,2.40
2023-01-23T05:23:11.319Z,2.30
2023-01-23T05:25:50.923Z,2.30
2023-01-23T05:28:18.257Z,2.30
2023-01-23T05:30:50.407Z,2.30
2023-01-23T05:33:28.103Z,2.40
2023-01-23T05:35:59.907Z,2.40
2023-01-23T05:38:27.592Z,2.40
2023-01-23T05:40:55.042Z,2.40
2023-01-23T05:43:45.279Z,2.40
2023-01-23T05:46:40.411Z,2.40
2023-01-23T05:49:08.450Z,2.40
2023-01-23T05:51:36.140Z,2.50
2023-01-23T05:54:04.999Z,2.50
2023-01-23T05:56:33.717Z,2.50
2023-01-23T05:59:19.634Z,2.50
2023-01-23T06:02:04.899Z,2.50
2023-01-23T06:04:55.903Z,2.50
2023-01-23T06:07:30.693Z,2.60
2023-01-23T06:09:58.885Z,2.50
2023-01-23T06:12:26.300Z,2.60
2023-01-23T06:14:53.664Z,2.60
2023-01-23T06:17:20.976Z,2.60
2023-01-23T06:19:48.609Z,2.60
2023-01-23T06:22:16.760Z,2.60
2023-01-23T06:25:01.345Z,2.60
2023-01-23T06:27:28.957Z,2.60
2023-01-23T06:29:56.275Z,2.60
2023-01-23T06:32:24.015Z,2.70
2023-01-23T06:34:52.575Z,2.70
2023-01-23T06:37:19.886Z,2.70
2023-01-23T06:39:47.303Z,2.60
2023-01-23T06:42:16.234Z,2.70
2023-01-23T06:44:47.289Z,2.70
2023-01-23T06:47:16.636Z,2.70
2023-01-23T06:49:45.764Z,2.70
2023-01-23T06:52:13.097Z,2.70
2023-01-23T06:54:42.530Z,2.70
2023-01-23T06:57:09.830Z,2.70
2023-01-23T06:59:37.104Z,2.70
2023-01-23T07:02:10.388Z,2.70
2023-01-23T07:04:43.378Z,2.70
2023-01-23T07:07:11.911Z,2.70
2023-01-23T07:09:41.009Z,2.70
2023-01-23T07:12:16.721Z,2.70
2023-01-23T07:14:45.088Z,2.70
2023-01-23T07:17:15.363Z,2.70
2023-01-23T07:19:42.756Z,2.70
2023-01-23T07:22:16.318Z,2.70
2023-01-23T07:24:43.539Z,2.60
2023-01-23T07:27:10.797Z,2.60
2023-01-23T07:29:38.138Z,2.60
2023-01-23T07:32:05.992Z,2.60
2023-01-23T07:34:33.459Z,2.60
2023-01-23T07:37:00.774Z,2.60
2023-01-23T07:39:28.105Z,2.50
2023-01-23T07:41:55.409Z,2.50
2023-01-23T07:44:27.559Z,2.60
2023-01-23T07:46:54.990Z,2.60
2023-01-23T07:49:22.411Z,2.70
2023-01-23T07:51:49.767Z,2.70
2023-01-23T07:54:36.503Z,2.70
2023-01-23T07:57:04.010Z,2.70
2023-01-23T07:59:31.424Z,2.70
2023-01-23T08:01:58.919Z,2.70
2023-01-23T08:04:26.296Z,2.80
2023-01-23T08:06:53.621Z,2.80
2023-01-23T08:09:21.101Z,2.80
2023-01-23T08:11:52.340Z,2.80
2023-01-23T08:14:20.501Z,2.90
2023-01-23T08:17:18.382Z,2.90
2023-01-23T08:19:45.633Z,2.90
2023-01-23T08:22:12.887Z,3.00
2023-01-23T08:24:40.148Z,3.00
2023-01-23T08:27:07.897Z,3.00
2023-01-23T08:29:35.243Z,3.00
2023-01-23T08:32:02.578Z,3.00
2023-01-23T08:34:29.892Z,3.10
2023-01-23T08:36:57.356Z,3.10
2023-01-23T08:39:24.661Z,3.10
2023-01-23T08:41:51.960Z,3.10
2023-01-23T08:44:19.258Z,3.10
2023-01-23T08:46:46.820Z,3.20
2023-01-23T08:49:14.152Z,3.20
2023-01-23T08:51:41.423Z,3.20
2023-01-23T08:54:08.695Z,3.20
2023-01-23T08:56:36.052Z,3.30
2023-01-23T08:59:03.316Z,3.30
2023-01-23T09:01:30.627Z,3.30
2023-01-23T09:03:57.877Z,3.40
2023-01-23T09:06:25.218Z,3.40
2023-01-23T09:08:52.641Z,3.40
2023-01-23T09:11:20.169Z,3.50
2023-01-23T09:13:47.742Z,3.50
2023-01-23T09:16:15.793Z,3.60
2023-01-23T09:18:43.260Z,3.60
2023-01-23T09:21:14.254Z,3.70
2023-01-23T09:23:41.757Z,3.70
2023-01-23T09:26:11.778Z,3.80
2023-01-23T09:28:42.024Z,3.90
2023-01-23T09:31:12.546Z,3.90
2023-01-23T09:33:41.047Z,3.80
2023-01-23T09:36:09.675Z,3.90
2023-01-23T09:38:37.318Z,3.90
2023-01-23T09:41:25.586Z,3.80
2023-01-23T09:43:59.055Z,3.80
2023-01-23T09:46:32.991Z,3.70
2023-01-23T09:49:13.871Z,3.70
2023-01-23T09:52:05.501Z,3.70
2023-01-23T09:55:14.820Z,3.70
2023-01-23T09:58:03.390Z,3.70
2023-01-23T10:00:32.977Z,3.70
2023-01-23T10:03:12.671Z,3.80
2023-01-23T10:05:52.215Z,3.80
2023-01-23T10:08:32.042Z,3.70
2023-01-23T10:11:47.756Z,3.80
2023-01-23T10:14:19.914Z,4.00
2023-01-23T10:23:01.936Z,4.10
2023-01-23T10:25:34.913Z,4.00
2023-01-23T10:28:37.524Z,4.10
2023-01-23T10:31:10.230Z,4.00
2023-01-23T10:33:48.063Z,4.00
2023-01-23T10:36:41.996Z,3.90
2023-01-23T10:47:32.845Z,4.00
2023-01-23T10:50:00.754Z,4.00
2023-01-23T10:52:41.596Z,4.00
2023-01-23T10:55:30.418Z,4.10
2023-01-23T10:58:01.761Z,4.10
2023-01-23T11:00:38.438Z,4.00
2023-01-23T11:03:38.272Z,4.10
2023-01-23T11:11:23.779Z,4.10
2023-01-23T11:14:16.321Z,4.10
2023-01-23T11:16:43.529Z,4.10
2023-01-23T11:19:14.939Z,4.10
2023-01-23T11:21:52.542Z,4.00
2023-01-23T11:24:38.362Z,4.00
2023-01-23T11:27:17.716Z,4.00
2023-01-23T11:35:20.334Z,4.10
2023-01-23T11:37:47.227Z,4.10
2023-01-23T11:40:18.564Z,4.20
2023-01-23T11:42:46.005Z,4.20
2023-01-23T11:45:35.265Z,4.20
2023-01-23T11:48:37.413Z,4.30
2023-01-23T11:51:41.484Z,4.30
2023-01-23T11:54:25.269Z,4.30
2023-01-23T11:57:09.480Z,4.30
2023-01-23T11:59:50.494Z,4.40
2023-01-23T12:02:55.365Z,4.40
2023-01-23T12:05:41.425Z,4.30
2023-01-23T12:08:30.470Z,4.30
2023-01-23T12:11:24.580Z,4.30
2023-01-23T12:14:29.257Z,4.30
2023-01-23T12:17:23.659Z,4.30
2023-01-23T12:20:25.650Z,4.30
2023-01-23T12:23:00.989Z,4.30
2023-01-23T12:25:40.149Z,4.30
2023-01-23T12:28:21.040Z,4.40
2023-01-23T12:30:51.353Z,4.40
2023-01-23T12:33:33.990Z,4.30
2023-01-23T12:36:16.220Z,4.30
2023-01-23T12:39:15.107Z,4.20
2023-01-23T12:41:47.929Z,4.30
2023-01-23T12:44:44.502Z,4.20
2023-01-23T12:47:18.177Z,4.30
2023-01-23T12:49:48.374Z,4.30
2023-01-23T12:52:27.891Z,4.30
2023-01-23T12:55:06.215Z,4.20
2023-01-23T12:57:52.445Z,4.30
2023-01-23T13:00:48.709Z,4.20
2023-01-23T13:03:37.574Z,4.20
2023-01-23T13:06:30.771Z,4.20
2023-01-23T13:09:17.563Z,4.20
2023-01-23T13:12:22.628Z,4.20
2023-01-23T13:15:14.986Z,4.20
2023-01-23T13:17:59.807Z,4.20
2023-01-23T13:20:50.487Z,4.30
2023-01-23T13:23:28.592Z,4.40
2023-01-23T13:26:20.231Z,4.30
2023-01-23T13:28:54.688Z,4.30
2023-01-23T13:31:42.559Z,4.30
2023-01-23T13:34:16.271Z,4.30
2023-01-23T13:36:53.999Z,4.30
2023-01-23T13:39:24.052Z,4.40
2023-01-23T13:42:26.371Z,4.40
2023-01-23T13:45:18.987Z,4.40
2023-01-23T14:21:57.621Z,4.50
2023-01-23T14:25:00.406Z,4.40
2023-01-23T14:27:51.381Z,4.40
2023-01-23T14:30:24.797Z,4.40
2023-01-23T14:32:52.206Z,4.40
2023-01-23T14:35:31.861Z,4.30
2023-01-23T14:38:02.079Z,4.30
2023-01-23T14:40:35.326Z,4.20
2023-01-23T14:43:08.477Z,4.30
2023-01-23T14:45:37.453Z,4.20
2023-01-23T14:48:07.445Z,4.20
2023-01-23T14:50:35.244Z,4.20
2023-01-23T14:53:12.111Z,4.30
2023-01-23T14:55:42.629Z,4.20
2023-01-23T14:58:23.663Z,4.20
2023-01-23T15:00:52.844Z,4.20
2023-01-23T15:04:00.580Z,4.10
2023-01-23T15:06:29.524Z,4.10
2023-01-23T15:09:12.392Z,4.00
2023-01-23T15:11:39.953Z,4.00
2023-01-23T15:14:25.223Z,3.90
2023-01-23T15:17:01.318Z,3.90
2023-01-23T15:19:29.251Z,3.90
2023-01-23T15:22:21.951Z,3.90
2023-01-23T15:24:49.280Z,3.90
2023-01-23T15:27:28.910Z,3.90
2023-01-23T15:30:36.550Z,3.80
2023-01-23T15:33:10.193Z,3.80
2023-01-23T15:35:38.497Z,3.80
2023-01-23T15:38:08.687Z,3.80
2023-01-23T15:40:38.256Z,3.80
2023-01-23T15:43:15.519Z,3.80
2023-01-23T15:45:42.883Z,3.80
2023-01-23T15:48:10.232Z,3.80
2023-01-23T15:50:37.928Z,3.80
2023-01-23T15:53:14.058Z,3.80
2023-01-23T15:55:41.443Z,3.80
2023-01-23T15:58:17.778Z,3.80
2023-01-23T16:00:45.441Z,3.90
2023-01-23T16:03:14.786Z,3.80
2023-01-23T16:05:42.239Z,3.80
2023-01-23T16:08:20.477Z,3.80
2023-01-23T16:10:48.414Z,3.80
2023-01-23T16:13:15.930Z,3.80
2023-01-23T16:15:43.816Z,3.80
2023-01-23T16:18:11.200Z,3.80
2023-01-23T16:20:44.190Z,3.80
2023-01-23T16:23:18.157Z,3.70
2023-01-23T16:25:46.567Z,3.70
2023-01-23T16:28:23.977Z,3.70
2023-01-23T16:30:51.842Z,3.70
2023-01-23T16:33:20.597Z,3.70
2023-01-23T16:35:49.405Z,3.60
2023-01-23T16:38:24.135Z,3.60
2023-01-23T16:40:53.617Z,3.60
2023-01-23T16:43:22.278Z,3.70
2023-01-23T16:45:53.696Z,3.60
2023-01-23T16:48:28.292Z,3.60
2023-01-23T16:51:08.084Z,3.60
2023-01-23T16:53:40.260Z,3.60
2023-01-23T16:56:14.664Z,3.60
2023-01-23T16:58:41.981Z,3.60
2023-01-23T17:01:16.382Z,3.60
2023-01-23T17:03:45.022Z,3.60
2023-01-23T17:06:16.627Z,3.60
2023-01-23T17:08:44.005Z,3.60
2023-01-23T17:11:18.337Z,3.60
2023-01-23T17:13:45.845Z,3.60
2023-01-23T17:16:26.518Z,3.60
2023-01-23T17:18:57.099Z,3.60
2023-01-23T17:21:27.828Z,3.60
2023-01-23T17:23:55.224Z,3.60
2023-01-23T17:26:22.521Z,3.50
2023-01-23T17:28:50.090Z,3.60
2023-01-23T17:31:25.604Z,3.60
2023-01-23T17:33:53.087Z,3.60
2023-01-23T17:36:20.400Z,3.60
2023-01-23T17:38:47.864Z,3.50
2023-01-23T17:41:16.572Z,3.50
2023-01-23T17:43:44.736Z,3.50
2023-01-23T17:46:26.933Z,3.50
2023-01-23T17:48:55.981Z,3.50
2023-01-23T17:51:24.611Z,3.60
2023-01-23T17:53:52.666Z,3.50
2023-01-23T17:56:19.940Z,3.50
2023-01-23T17:58:47.286Z,3.50
2023-01-23T18:01:24.929Z,3.50
2023-01-23T18:03:53.194Z,3.50
2023-01-23T18:06:20.728Z,3.50
2023-01-23T18:08:48.057Z,3.50
2023-01-23T18:11:23.469Z,3.50
2023-01-23T18:14:02.875Z,3.50
2023-01-23T18:16:39.788Z,3.50
2023-01-23T18:19:19.506Z,3.40
2023-01-23T18:21:57.112Z,3.40
2023-01-23T18:24:30.249Z,3.40
2023-01-23T18:27:00.900Z,3.40
2023-01-23T18:29:31.322Z,3.40
2023-01-23T18:32:08.852Z,3.40
2023-01-23T18:34:48.640Z,3.40
2023-01-23T18:37:19.986Z,3.40
2023-01-23T18:40:05.250Z,3.50
2023-01-23T18:42:40.611Z,3.40
2023-01-23T18:45:18.417Z,3.50
2023-01-23T18:47:48.342Z,3.40
2023-01-23T18:50:19.109Z,3.40
2023-01-23T18:53:26.440Z,3.50
2023-01-23T18:56:29.532Z,3.40
2023-01-23T18:59:12.794Z,3.40
2023-01-23T19:01:54.374Z,3.40
2023-01-23T19:04:50.957Z,3.40
2023-01-23T19:07:19.371Z,3.40
2023-01-23T19:09:48.336Z,3.40
2023-01-23T19:12:25.662Z,3.40
2023-01-23T19:14:56.426Z,3.40
2023-01-23T19:17:44.014Z,3.40
2023-01-23T19:20:37.678Z,3.40
2023-01-23T19:23:23.779Z,3.40
2023-01-23T19:25:51.323Z,3.40
2023-01-23T19:28:18.976Z,3.40
2023-01-23T19:30:46.691Z,3.40
2023-01-23T19:33:18.709Z,3.40
2023-01-23T19:35:46.888Z,3.40
2023-01-23T19:38:15.245Z,3.40
2023-01-23T19:40:43.830Z,3.40
2023-01-23T19:43:16.754Z,3.40
2023-01-23T19:45:45.015Z,3.40
2023-01-23T19:48:13.113Z,3.40
2023-01-23T19:50:40.989Z,3.40
2023-01-23T19:53:14.255Z,3.30
2023-01-23T19:55:41.865Z,3.30
2023-01-23T19:58:09.198Z,3.30
2023-01-23T20:00:36.575Z,3.30
2023-01-23T20:03:05.051Z,3.30
2023-01-23T20:05:32.446Z,3.30
2023-01-23T20:08:01.057Z,3.30
2023-01-23T20:10:28.656Z,3.30
2023-01-23T20:12:56.715Z,3.30
2023-01-23T20:15:25.743Z,3.30
2023-01-23T20:17:53.687Z,3.40
2023-01-23T20:20:21.703Z,3.40
2023-01-23T20:22:49.199Z,3.40
2023-01-23T20:25:17.512Z,3.40
2023-01-23T20:27:45.326Z,3.40
2023-01-23T20:30:18.070Z,3.40
2023-01-23T20:32:45.573Z,3.40
2023-01-23T20:35:12.898Z,3.40
2023-01-23T20:37:40.142Z,3.40
2023-01-23T20:40:14.066Z,3.40
2023-01-23T20:42:41.438Z,3.40
2023-01-23T20:45:09.418Z,3.50
2023-01-23T20:47:36.741Z,3.40
2023-01-23T20:50:04.539Z,3.40
2023-01-23T20:52:50.693Z,3.50
2023-01-23T20:55:18.120Z,3.40
2023-01-23T20:58:04.122Z,3.40
2023-01-23T21:00:31.505Z,3.40
2023-01-23T21:02:58.876Z,3.40
2023-01-23T21:05:26.225Z,3.40
2023-01-23T21:07:53.497Z,3.40
2023-01-23T21:10:20.921Z,3.40
2023-01-23T21:12:48.176Z,3.40
2023-01-23T21:15:15.579Z,3.40
2023-01-23T21:17:42.873Z,3.40
2023-01-23T21:20:11.155Z,3.40
2023-01-23T21:22:38.493Z,3.40
2023-01-23T21:25:06.528Z,3.40
2023-01-23T21:27:33.897Z,3.40
2023-01-23T21:30:01.193Z,3.40
2023-01-23T21:32:28.511Z,3.50
2023-01-23T21:34:55.856Z,3.50
2023-01-23T21:37:23.416Z,3.50
2023-01-23T21:39:50.784Z,3.50
2023-01-23T21:42:18.062Z,3.50
2023-01-23T21:44:45.439Z,3.50
2023-01-23T21:47:12.778Z,3.50
2023-01-23T21:49:40.006Z,3.50
2023-01-23T21:52:07.311Z,3.50
2023-01-23T21:54:34.592Z,3.50
2023-01-23T21:57:01.929Z,3.50
2023-01-23T21:59:29.158Z,3.50
2023-01-23T22:01:56.477Z,3.50
2023-01-23T22:04:23.945Z,3.50
2023-01-23T22:06:54.916Z,3.50
2023-01-23T22:09:24.825Z,3.60
2023-01-23T22:11:52.672Z,3.60
2023-01-23T22:14:19.996Z,3.60
2023-01-23T22:16:49.348Z,3.60
2023-01-23T22:19:21.047Z,3.50
2023-01-23T22:21:49.995Z,3.50
2023-01-23T22:24:17.399Z,3.50
2023-01-23T22:26:44.726Z,3.50
2023-01-23T22:29:15.121Z,3.50
2023-01-23T22:31:43.020Z,3.50
2023-01-23T22:34:10.500Z,3.50
2023-01-23T22:36:37.815Z,3.50
2023-01-23T22:39:05.127Z,3.50
2023-01-23T22:41:32.536Z,3.50
2023-01-23T22:43:59.843Z,3.50
2023-01-23T22:46:28.051Z,3.60
2023-01-23T22:48:55.446Z,3.50
2023-01-23T22:51:25.572Z,3.50
2023-01-23T22:53:54.505Z,3.50
2023-01-23T22:56:22.433Z,3.50
2023-01-23T22:58:52.603Z,3.50
2023-01-23T23:01:23.310Z,3.50
2023-01-23T23:03:51.149Z,3.50
2023-01-23T23:06:19.566Z,3.50
2023-01-23T23:08:48.445Z,3.50
2023-01-23T23:11:27.045Z,3.50
2023-01-23T23:13:55.573Z,3.40
2023-01-23T23:16:26.553Z,3.50
2023-01-23T23:18:56.331Z,3.40
2023-01-23T23:21:25.770Z,3.40
2023-01-23T23:23:57.143Z,3.40
2023-01-23T23:26:26.427Z,3.40
2023-01-23T23:28:54.779Z,3.50
2023-01-23T23:31:22.365Z,3.40
2023-01-23T23:33:49.964Z,3.50
2023-01-23T23:36:17.539Z,3.40
2023-01-23T23:38:45.183Z,3.40
2023-01-23T23:41:15.049Z,3.40
2023-01-23T23:43:43.735Z,3.40
2023-01-23T23:46:12.647Z,3.40
2023-01-23T23:48:40.246Z,3.40
2023-01-23T23:51:09.417Z,3.40
2023-01-23T23:53:36.891Z,3.40
2023-01-23T23:56:05.624Z,3.40
2023-01-23T23:58:35.768Z,3.40
